sensor_id;sensor_type;location;lat;lon;timestamp;P1;durP1;ratioP1;P2;durP2;ratioP2
21569;SDS011;57598;50.888;4.746;2022-09-30T00:00:34;46.47;;;43.38;;
21569;SDS011;57598;50.888;4.746;2022-09-30T00:03:01;45.05;;;41.92;;
21569;SDS011;57598;50.888;4.746;2022-09-30T00:05:30;43.63;;;40.63;;
21569;SDS011;57598;50.888;4.746;2022-09-30T00:07:57;43.17;;;40.17;;
21569;SDS011;57598;50.888;4.746;2022-09-30T00:10:26;42.20;;;39.30;;
21569;SDS011;57598;50.888;4.746;2022-09-30T00:12:53;42.40;;;39.47;;
21569;SDS011;57598;50.888;4.746;2022-09-30T00:15:21;43.55;;;40.55;;
21569;SDS011;57598;50.888;4.746;2022-09-30T00:17:48;42.75;;;39.85;;
21569;SDS011;57598;50.888;4.746;2022-09-30T00:20:20;42.35;;;39.45;;
21569;SDS011;57598;50.888;4.746;2022-09-30T00:22:52;43.40;;;40.40;;
21569;SDS011;57598;50.888;4.746;2022-09-30T00:25:19;43.30;;;40.30;;
21569;SDS011;57598;50.888;4.746;2022-09-30T00:27:46;43.42;;;40.42;;
21569;SDS011;57598;50.888;4.746;2022-09-30T00:30:13;44.72;;;41.63;;
21569;SDS011;57598;50.888;4.746;2022-09-30T00:32:41;43.97;;;40.97;;
21569;SDS011;57598;50.888;4.746;2022-09-30T00:35:08;44.38;;;41.35;;
21569;SDS011;57598;50.888;4.746;2022-09-30T00:37:35;42.03;;;39.22;;
21569;SDS011;57598;50.888;4.746;2022-09-30T00:40:04;43.20;;;40.30;;
21569;SDS011;57598;50.888;4.746;2022-09-30T00:42:31;44.42;;;41.30;;
21569;SDS011;57598;50.888;4.746;2022-09-30T00:45:03;43.00;;;40.00;;
21569;SDS011;57598;50.888;4.746;2022-09-30T00:47:35;43.55;;;40.50;;
21569;SDS011;57598;50.888;4.746;2022-09-30T00:50:05;42.63;;;39.72;;
21569;SDS011;57598;50.888;4.746;2022-09-30T00:52:36;42.72;;;39.72;;
21569;SDS011;57598;50.888;4.746;2022-09-30T00:55:05;43.85;;;40.75;;
21569;SDS011;57598;50.888;4.746;2022-09-30T00:57:37;43.10;;;40.08;;
21569;SDS011;57598;50.888;4.746;2022-09-30T01:00:05;42.95;;;39.95;;
21569;SDS011;57598;50.888;4.746;2022-09-30T01:02:33;44.53;;;41.13;;
21569;SDS011;57598;50.888;4.746;2022-09-30T01:05:00;43.25;;;40.25;;
21569;SDS011;57598;50.888;4.746;2022-09-30T01:07:29;44.25;;;41.15;;
21569;SDS011;57598;50.888;4.746;2022-09-30T01:09:57;43.08;;;40.08;;
21569;SDS011;57598;50.888;4.746;2022-09-30T01:12:26;44.33;;;41.22;;
21569;SDS011;57598;50.888;4.746;2022-09-30T01:14:53;43.35;;;40.35;;
21569;SDS011;57598;50.888;4.746;2022-09-30T01:17:30;41.92;;;39.03;;
21569;SDS011;57598;50.888;4.746;2022-09-30T01:22:52;42.80;;;39.80;;
21569;SDS011;57598;50.888;4.746;2022-09-30T01:25:36;43.40;;;40.40;;
21569;SDS011;57598;50.888;4.746;2022-09-30T01:28:19;43.55;;;40.45;;
21569;SDS011;57598;50.888;4.746;2022-09-30T01:30:56;44.20;;;41.10;;
21569;SDS011;57598;50.888;4.746;2022-09-30T01:33:29;44.80;;;41.70;;
21569;SDS011;57598;50.888;4.746;2022-09-30T01:36:15;43.75;;;40.65;;
21569;SDS011;57598;50.888;4.746;2022-09-30T01:38:46;43.83;;;40.72;;
21569;SDS011;57598;50.888;4.746;2022-09-30T01:41:19;48.30;;;44.90;;
21569;SDS011;57598;50.888;4.746;2022-09-30T01:43:50;43.40;;;40.30;;
21569;SDS011;57598;50.888;4.746;2022-09-30T01:46:24;44.72;;;41.53;;
21569;SDS011;57598;50.888;4.746;2022-09-30T01:48:56;44.00;;;40.90;;
21569;SDS011;57598;50.888;4.746;2022-09-30T01:51:26;43.92;;;40.83;;
21569;SDS011;57598;50.888;4.746;2022-09-30T01:53:57;43.40;;;40.38;;
21569;SDS011;57598;50.888;4.746;2022-09-30T01:56:26;43.90;;;40.80;;
21569;SDS011;57598;50.888;4.746;2022-09-30T01:58:56;43.70;;;40.60;;
21569;SDS011;57598;50.888;4.746;2022-09-30T02:01:31;44.10;;;40.90;;
21569;SDS011;57598;50.888;4.746;2022-09-30T02:04:00;44.70;;;41.50;;
21569;SDS011;57598;50.888;4.746;2022-09-30T02:06:33;45.75;;;42.35;;
21569;SDS011;57598;50.888;4.746;2022-09-30T02:09:03;45.83;;;42.55;;
21569;SDS011;57598;50.888;4.746;2022-09-30T02:11:32;44.55;;;41.35;;
21569;SDS011;57598;50.888;4.746;2022-09-30T02:14:01;45.35;;;42.15;;
21569;SDS011;57598;50.888;4.746;2022-09-30T02:16:33;45.08;;;41.85;;
21569;SDS011;57598;50.888;4.746;2022-09-30T02:19:05;44.88;;;41.67;;
21569;SDS011;57598;50.888;4.746;2022-09-30T02:21:37;44.05;;;40.95;;
21569;SDS011;57598;50.888;4.746;2022-09-30T02:24:06;44.30;;;41.17;;
21569;SDS011;57598;50.888;4.746;2022-09-30T02:26:38;44.17;;;40.97;;
21569;SDS011;57598;50.888;4.746;2022-09-30T02:29:10;44.08;;;40.90;;
21569;SDS011;57598;50.888;4.746;2022-09-30T02:31:40;44.00;;;40.90;;
21569;SDS011;57598;50.888;4.746;2022-09-30T02:34:14;43.40;;;40.30;;
21569;SDS011;57598;50.888;4.746;2022-09-30T02:36:44;44.10;;;41.00;;
21569;SDS011;57598;50.888;4.746;2022-09-30T02:39:15;43.53;;;40.43;;
21569;SDS011;57598;50.888;4.746;2022-09-30T02:41:47;44.45;;;41.28;;
21569;SDS011;57598;50.888;4.746;2022-09-30T02:44:19;45.83;;;42.42;;
21569;SDS011;57598;50.888;4.746;2022-09-30T02:47:02;43.58;;;40.47;;
21569;SDS011;57598;50.888;4.746;2022-09-30T02:49:35;43.65;;;40.45;;
21569;SDS011;57598;50.888;4.746;2022-09-30T02:52:06;44.63;;;41.42;;
21569;SDS011;57598;50.888;4.746;2022-09-30T02:54:46;43.65;;;40.55;;
21569;SDS011;57598;50.888;4.746;2022-09-30T02:57:14;46.63;;;43.30;;
21569;SDS011;57598;50.888;4.746;2022-09-30T02:59:53;44.95;;;41.65;;
21569;SDS011;57598;50.888;4.746;2022-09-30T03:02:22;45.40;;;42.00;;
21569;SDS011;57598;50.888;4.746;2022-09-30T03:04:49;45.38;;;42.08;;
21569;SDS011;57598;50.888;4.746;2022-09-30T03:07:18;44.35;;;41.15;;
21569;SDS011;57598;50.888;4.746;2022-09-30T03:09:46;43.90;;;40.70;;
21569;SDS011;57598;50.888;4.746;2022-09-30T03:12:16;43.75;;;40.55;;
21569;SDS011;57598;50.888;4.746;2022-09-30T03:14:50;44.40;;;41.20;;
21569;SDS011;57598;50.888;4.746;2022-09-30T03:17:25;43.75;;;40.65;;
21569;SDS011;57598;50.888;4.746;2022-09-30T03:20:01;44.17;;;41.08;;
21569;SDS011;57598;50.888;4.746;2022-09-30T03:22:41;44.83;;;41.63;;
21569;SDS011;57598;50.888;4.746;2022-09-30T03:25:18;44.78;;;41.58;;
21569;SDS011;57598;50.888;4.746;2022-09-30T03:27:50;45.60;;;42.30;;
21569;SDS011;57598;50.888;4.746;2022-09-30T03:30:24;44.85;;;41.55;;
21569;SDS011;57598;50.888;4.746;2022-09-30T03:32:58;44.38;;;41.15;;
21569;SDS011;57598;50.888;4.746;2022-09-30T03:35:28;45.53;;;42.13;;
21569;SDS011;57598;50.888;4.746;2022-09-30T03:38:00;44.05;;;40.75;;
21569;SDS011;57598;50.888;4.746;2022-09-30T03:40:30;43.88;;;40.65;;
21569;SDS011;57598;50.888;4.746;2022-09-30T03:43:05;47.97;;;44.22;;
21569;SDS011;57598;50.888;4.746;2022-09-30T03:45:36;43.58;;;40.30;;
21569;SDS011;57598;50.888;4.746;2022-09-30T03:48:06;44.70;;;41.40;;
21569;SDS011;57598;50.888;4.746;2022-09-30T03:50:35;45.08;;;41.70;;
21569;SDS011;57598;50.888;4.746;2022-09-30T03:53:02;44.10;;;40.80;;
21569;SDS011;57598;50.888;4.746;2022-09-30T03:55:32;44.10;;;40.80;;
21569;SDS011;57598;50.888;4.746;2022-09-30T03:58:00;44.33;;;41.03;;
21569;SDS011;57598;50.888;4.746;2022-09-30T04:00:28;46.00;;;42.60;;
21569;SDS011;57598;50.888;4.746;2022-09-30T04:02:56;44.58;;;41.38;;
21569;SDS011;57598;50.888;4.746;2022-09-30T04:05:25;46.13;;;42.83;;
21569;SDS011;57598;50.888;4.746;2022-09-30T04:07:52;44.28;;;41.17;;
21569;SDS011;57598;50.888;4.746;2022-09-30T04:10:19;43.80;;;40.60;;
21569;SDS011;57598;50.888;4.746;2022-09-30T04:12:46;43.90;;;40.70;;
21569;SDS011;57598;50.888;4.746;2022-09-30T04:15:14;45.47;;;42.22;;
21569;SDS011;57598;50.888;4.746;2022-09-30T04:17:41;43.85;;;40.65;;
21569;SDS011;57598;50.888;4.746;2022-09-30T04:20:08;47.38;;;43.88;;
21569;SDS011;57598;50.888;4.746;2022-09-30T04:22:39;45.20;;;41.90;;
21569;SDS011;57598;50.888;4.746;2022-09-30T04:25:07;44.95;;;41.65;;
21569;SDS011;57598;50.888;4.746;2022-09-30T04:27:35;44.35;;;41.05;;
21569;SDS011;57598;50.888;4.746;2022-09-30T04:30:02;43.60;;;40.40;;
21569;SDS011;57598;50.888;4.746;2022-09-30T04:32:29;44.05;;;40.75;;
21569;SDS011;57598;50.888;4.746;2022-09-30T04:34:57;44.42;;;41.22;;
21569;SDS011;57598;50.888;4.746;2022-09-30T04:37:24;43.95;;;40.85;;
21569;SDS011;57598;50.888;4.746;2022-09-30T04:39:52;45.13;;;41.85;;
21569;SDS011;57598;50.888;4.746;2022-09-30T04:42:20;44.65;;;41.35;;
21569;SDS011;57598;50.888;4.746;2022-09-30T04:44:47;45.20;;;41.90;;
21569;SDS011;57598;50.888;4.746;2022-09-30T04:47:15;44.40;;;41.20;;
21569;SDS011;57598;50.888;4.746;2022-09-30T04:49:42;45.17;;;41.88;;
21569;SDS011;57598;50.888;4.746;2022-09-30T04:52:09;44.05;;;40.85;;
21569;SDS011;57598;50.888;4.746;2022-09-30T04:54:37;44.50;;;41.10;;
21569;SDS011;57598;50.888;4.746;2022-09-30T04:57:06;45.75;;;42.35;;
21569;SDS011;57598;50.888;4.746;2022-09-30T04:59:33;43.60;;;40.40;;
21569;SDS011;57598;50.888;4.746;2022-09-30T05:02:00;43.90;;;40.70;;
21569;SDS011;57598;50.888;4.746;2022-09-30T05:04:28;43.10;;;40.00;;
21569;SDS011;57598;50.888;4.746;2022-09-30T05:06:59;44.30;;;41.00;;
21569;SDS011;57598;50.888;4.746;2022-09-30T05:09:27;46.10;;;42.70;;
21569;SDS011;57598;50.888;4.746;2022-09-30T05:11:55;44.22;;;40.92;;
21569;SDS011;57598;50.888;4.746;2022-09-30T05:14:23;44.13;;;40.88;;
21569;SDS011;57598;50.888;4.746;2022-09-30T05:16:51;44.22;;;40.92;;
21569;SDS011;57598;50.888;4.746;2022-09-30T05:19:18;44.35;;;41.05;;
21569;SDS011;57598;50.888;4.746;2022-09-30T05:21:46;44.50;;;41.35;;
21569;SDS011;57598;50.888;4.746;2022-09-30T05:24:14;44.47;;;41.22;;
21569;SDS011;57598;50.888;4.746;2022-09-30T05:26:41;46.40;;;43.10;;
21569;SDS011;57598;50.888;4.746;2022-09-30T05:29:08;44.17;;;41.08;;
21569;SDS011;57598;50.888;4.746;2022-09-30T05:31:37;43.80;;;40.60;;
21569;SDS011;57598;50.888;4.746;2022-09-30T05:34:06;45.13;;;41.90;;
21569;SDS011;57598;50.888;4.746;2022-09-30T05:36:37;44.95;;;41.55;;
21569;SDS011;57598;50.888;4.746;2022-09-30T05:42:08;47.58;;;43.97;;
21569;SDS011;57598;50.888;4.746;2022-09-30T05:44:35;44.20;;;41.00;;
21569;SDS011;57598;50.888;4.746;2022-09-30T05:47:04;43.90;;;40.60;;
21569;SDS011;57598;50.888;4.746;2022-09-30T05:49:35;44.58;;;41.38;;
21569;SDS011;57598;50.888;4.746;2022-09-30T05:52:04;44.03;;;40.83;;
21569;SDS011;57598;50.888;4.746;2022-09-30T05:54:31;45.97;;;42.65;;
21569;SDS011;57598;50.888;4.746;2022-09-30T05:56:59;45.65;;;42.45;;
21569;SDS011;57598;50.888;4.746;2022-09-30T05:59:26;43.45;;;40.40;;
21569;SDS011;57598;50.888;4.746;2022-09-30T06:01:53;43.00;;;39.80;;
21569;SDS011;57598;50.888;4.746;2022-09-30T06:04:22;46.35;;;43.15;;
21569;SDS011;57598;50.888;4.746;2022-09-30T06:06:49;45.00;;;41.90;;
21569;SDS011;57598;50.888;4.746;2022-09-30T06:09:16;44.25;;;41.08;;
21569;SDS011;57598;50.888;4.746;2022-09-30T06:11:43;44.40;;;41.30;;
21569;SDS011;57598;50.888;4.746;2022-09-30T06:14:11;43.92;;;40.83;;
21569;SDS011;57598;50.888;4.746;2022-09-30T06:16:38;42.85;;;39.85;;
21569;SDS011;57598;50.888;4.746;2022-09-30T06:19:05;43.05;;;39.95;;
21569;SDS011;57598;50.888;4.746;2022-09-30T06:21:34;44.60;;;41.30;;
21569;SDS011;57598;50.888;4.746;2022-09-30T06:24:01;42.45;;;39.35;;
21569;SDS011;57598;50.888;4.746;2022-09-30T06:26:28;45.42;;;42.03;;
21569;SDS011;57598;50.888;4.746;2022-09-30T06:28:56;44.10;;;40.90;;
21569;SDS011;57598;50.888;4.746;2022-09-30T06:31:23;44.22;;;41.13;;
21569;SDS011;57598;50.888;4.746;2022-09-30T06:33:51;42.85;;;39.85;;
21569;SDS011;57598;50.888;4.746;2022-09-30T06:36:18;43.40;;;40.30;;
21569;SDS011;57598;50.888;4.746;2022-09-30T06:38:48;44.22;;;41.13;;
21569;SDS011;57598;50.888;4.746;2022-09-30T06:41:18;43.92;;;40.83;;
21569;SDS011;57598;50.888;4.746;2022-09-30T06:43:45;42.90;;;39.80;;
21569;SDS011;57598;50.888;4.746;2022-09-30T06:46:13;42.40;;;39.30;;
21569;SDS011;57598;50.888;4.746;2022-09-30T06:48:40;44.45;;;41.35;;
21569;SDS011;57598;50.888;4.746;2022-09-30T06:51:07;44.42;;;41.22;;
21569;SDS011;57598;50.888;4.746;2022-09-30T06:53:35;40.92;;;37.83;;
21569;SDS011;57598;50.888;4.746;2022-09-30T06:56:04;45.38;;;42.08;;
21569;SDS011;57598;50.888;4.746;2022-09-30T06:58:32;44.50;;;41.20;;
21569;SDS011;57598;50.888;4.746;2022-09-30T07:01:00;44.65;;;41.40;;
21569;SDS011;57598;50.888;4.746;2022-09-30T07:03:29;45.92;;;42.35;;
21569;SDS011;57598;50.888;4.746;2022-09-30T07:05:57;42.70;;;39.40;;
21569;SDS011;57598;50.888;4.746;2022-09-30T07:08:25;42.60;;;39.33;;
21569;SDS011;57598;50.888;4.746;2022-09-30T07:10:55;39.40;;;36.50;;
21569;SDS011;57598;50.888;4.746;2022-09-30T07:13:24;37.90;;;35.00;;
21569;SDS011;57598;50.888;4.746;2022-09-30T07:15:51;37.22;;;34.53;;
21569;SDS011;57598;50.888;4.746;2022-09-30T07:18:20;37.88;;;34.85;;
21569;SDS011;57598;50.888;4.746;2022-09-30T07:20:48;35.63;;;33.22;;
21569;SDS011;57598;50.888;4.746;2022-09-30T07:23:16;37.25;;;34.55;;
21569;SDS011;57598;50.888;4.746;2022-09-30T07:25:49;33.33;;;31.23;;
21569;SDS011;57598;50.888;4.746;2022-09-30T07:28:17;32.45;;;30.45;;
21569;SDS011;57598;50.888;4.746;2022-09-30T07:30:46;32.25;;;30.25;;
21569;SDS011;57598;50.888;4.746;2022-09-30T07:33:15;27.50;;;25.90;;
21569;SDS011;57598;50.888;4.746;2022-09-30T07:35:49;28.48;;;26.35;;
21569;SDS011;57598;50.888;4.746;2022-09-30T07:38:17;26.80;;;25.05;;
21569;SDS011;57598;50.888;4.746;2022-09-30T07:40:54;24.55;;;23.15;;
21569;SDS011;57598;50.888;4.746;2022-09-30T07:43:22;27.13;;;25.05;;
21569;SDS011;57598;50.888;4.746;2022-09-30T07:45:53;26.40;;;24.63;;
21569;SDS011;57598;50.888;4.746;2022-09-30T07:48:20;25.80;;;24.25;;
21569;SDS011;57598;50.888;4.746;2022-09-30T07:51:05;25.40;;;23.77;;
21569;SDS011;57598;50.888;4.746;2022-09-30T07:53:34;26.80;;;25.10;;
21569;SDS011;57598;50.888;4.746;2022-09-30T07:56:02;25.13;;;23.42;;
21569;SDS011;57598;50.888;4.746;2022-09-30T07:58:29;25.02;;;23.52;;
21569;SDS011;57598;50.888;4.746;2022-09-30T08:00:58;24.98;;;23.48;;
21569;SDS011;57598;50.888;4.746;2022-09-30T08:03:25;25.58;;;23.85;;
21569;SDS011;57598;50.888;4.746;2022-09-30T08:05:52;24.80;;;23.30;;
21569;SDS011;57598;50.888;4.746;2022-09-30T08:08:20;24.48;;;22.85;;
21569;SDS011;57598;50.888;4.746;2022-09-30T08:10:47;24.90;;;23.25;;
21569;SDS011;57598;50.888;4.746;2022-09-30T08:13:14;25.77;;;24.05;;
21569;SDS011;57598;50.888;4.746;2022-09-30T08:15:42;23.65;;;22.20;;
21569;SDS011;57598;50.888;4.746;2022-09-30T08:18:10;23.65;;;22.13;;
21569;SDS011;57598;50.888;4.746;2022-09-30T08:20:37;24.88;;;23.27;;
21569;SDS011;57598;50.888;4.746;2022-09-30T08:23:05;21.58;;;20.35;;
21569;SDS011;57598;50.888;4.746;2022-09-30T08:25:32;25.48;;;23.85;;
21569;SDS011;57598;50.888;4.746;2022-09-30T08:27:59;26.75;;;24.27;;
21569;SDS011;57598;50.888;4.746;2022-09-30T08:30:27;23.80;;;22.40;;
21569;SDS011;57598;50.888;4.746;2022-09-30T08:32:54;26.02;;;24.05;;
21569;SDS011;57598;50.888;4.746;2022-09-30T08:35:22;21.05;;;19.75;;
21569;SDS011;57598;50.888;4.746;2022-09-30T08:37:50;23.75;;;22.17;;
21569;SDS011;57598;50.888;4.746;2022-09-30T08:40:18;25.35;;;23.65;;
21569;SDS011;57598;50.888;4.746;2022-09-30T08:42:51;25.23;;;23.40;;
21569;SDS011;57598;50.888;4.746;2022-09-30T08:45:25;22.88;;;21.45;;
21569;SDS011;57598;50.888;4.746;2022-09-30T08:47:58;24.83;;;22.55;;
21569;SDS011;57598;50.888;4.746;2022-09-30T08:50:29;21.88;;;20.58;;
21569;SDS011;57598;50.888;4.746;2022-09-30T08:53:01;31.67;;;22.83;;
21569;SDS011;57598;50.888;4.746;2022-09-30T08:55:30;24.55;;;22.70;;
21569;SDS011;57598;50.888;4.746;2022-09-30T08:57:59;23.73;;;22.08;;
21569;SDS011;57598;50.888;4.746;2022-09-30T09:00:28;24.63;;;23.13;;
21569;SDS011;57598;50.888;4.746;2022-09-30T09:02:56;23.02;;;21.67;;
21569;SDS011;57598;50.888;4.746;2022-09-30T09:05:29;25.73;;;23.92;;
21569;SDS011;57598;50.888;4.746;2022-09-30T09:08:00;23.85;;;22.38;;
21569;SDS011;57598;50.888;4.746;2022-09-30T09:10:32;24.60;;;23.02;;
21569;SDS011;57598;50.888;4.746;2022-09-30T09:13:04;25.45;;;23.88;;
21569;SDS011;57598;50.888;4.746;2022-09-30T09:15:41;23.42;;;22.02;;
21569;SDS011;57598;50.888;4.746;2022-09-30T09:18:21;23.52;;;22.08;;
21569;SDS011;57598;50.888;4.746;2022-09-30T09:20:54;25.98;;;24.15;;
21569;SDS011;57598;50.888;4.746;2022-09-30T09:23:22;24.27;;;22.77;;
21569;SDS011;57598;50.888;4.746;2022-09-30T09:25:50;23.70;;;22.20;;
21569;SDS011;57598;50.888;4.746;2022-09-30T09:28:24;24.13;;;22.73;;
21569;SDS011;57598;50.888;4.746;2022-09-30T09:30:53;23.42;;;22.13;;
21569;SDS011;57598;50.888;4.746;2022-09-30T09:33:23;24.27;;;22.77;;
21569;SDS011;57598;50.888;4.746;2022-09-30T09:35:56;23.35;;;21.95;;
21569;SDS011;57598;50.888;4.746;2022-09-30T09:38:26;23.92;;;22.52;;
21569;SDS011;57598;50.888;4.746;2022-09-30T09:41:08;24.25;;;22.75;;
21569;SDS011;57598;50.888;4.746;2022-09-30T09:43:42;25.63;;;23.92;;
21569;SDS011;57598;50.888;4.746;2022-09-30T09:46:14;25.60;;;24.20;;
21569;SDS011;57598;50.888;4.746;2022-09-30T09:48:45;23.63;;;22.33;;
21569;SDS011;57598;50.888;4.746;2022-09-30T09:51:15;25.05;;;23.55;;
21569;SDS011;57598;50.888;4.746;2022-09-30T09:53:47;25.20;;;23.27;;
21569;SDS011;57598;50.888;4.746;2022-09-30T09:56:15;24.42;;;23.02;;
21569;SDS011;57598;50.888;4.746;2022-09-30T10:01:29;24.58;;;22.98;;
21569;SDS011;57598;50.888;4.746;2022-09-30T10:04:07;23.95;;;22.40;;
21569;SDS011;57598;50.888;4.746;2022-09-30T10:06:44;26.65;;;24.70;;
21569;SDS011;57598;50.888;4.746;2022-09-30T10:09:25;24.50;;;23.08;;
21569;SDS011;57598;50.888;4.746;2022-09-30T10:14:39;26.17;;;24.50;;
21569;SDS011;57598;50.888;4.746;2022-09-30T10:17:16;26.27;;;24.58;;
21569;SDS011;57598;50.888;4.746;2022-09-30T10:19:46;25.02;;;23.52;;
21569;SDS011;57598;50.888;4.746;2022-09-30T10:24:43;24.90;;;23.38;;
21569;SDS011;57598;50.888;4.746;2022-09-30T10:27:24;24.30;;;22.85;;
21569;SDS011;57598;50.888;4.746;2022-09-30T10:29:52;24.48;;;23.05;;
21569;SDS011;57598;50.888;4.746;2022-09-30T10:32:19;23.15;;;21.75;;
21569;SDS011;57598;50.888;4.746;2022-09-30T10:34:48;21.83;;;20.63;;
21569;SDS011;57598;50.888;4.746;2022-09-30T10:37:21;23.70;;;22.40;;
21569;SDS011;57598;50.888;4.746;2022-09-30T10:39:51;23.73;;;22.40;;
21569;SDS011;57598;50.888;4.746;2022-09-30T10:42:23;24.02;;;22.63;;
21569;SDS011;57598;50.888;4.746;2022-09-30T10:44:52;23.25;;;21.95;;
21569;SDS011;57598;50.888;4.746;2022-09-30T10:47:21;24.23;;;22.70;;
21569;SDS011;57598;50.888;4.746;2022-09-30T10:49:50;22.88;;;21.58;;
21569;SDS011;57598;50.888;4.746;2022-09-30T10:52:19;24.05;;;22.65;;
21569;SDS011;57598;50.888;4.746;2022-09-30T10:54:49;23.60;;;22.20;;
21569;SDS011;57598;50.888;4.746;2022-09-30T10:57:20;23.92;;;22.63;;
21569;SDS011;57598;50.888;4.746;2022-09-30T10:59:48;23.95;;;22.45;;
21569;SDS011;57598;50.888;4.746;2022-09-30T11:02:22;23.77;;;22.38;;
21569;SDS011;57598;50.888;4.746;2022-09-30T11:04:54;23.08;;;21.77;;
21569;SDS011;57598;50.888;4.746;2022-09-30T11:07:26;23.70;;;22.40;;
21569;SDS011;57598;50.888;4.746;2022-09-30T11:09:56;23.20;;;21.90;;
21569;SDS011;57598;50.888;4.746;2022-09-30T11:12:29;22.35;;;21.05;;
21569;SDS011;57598;50.888;4.746;2022-09-30T11:15:01;22.85;;;21.55;;
21569;SDS011;57598;50.888;4.746;2022-09-30T11:17:31;21.65;;;20.45;;
21569;SDS011;57598;50.888;4.746;2022-09-30T11:20:02;20.35;;;19.15;;
21569;SDS011;57598;50.888;4.746;2022-09-30T11:22:36;20.70;;;19.50;;
21569;SDS011;57598;50.888;4.746;2022-09-30T11:25:03;20.45;;;19.25;;
21569;SDS011;57598;50.888;4.746;2022-09-30T11:27:37;21.90;;;20.70;;
21569;SDS011;57598;50.888;4.746;2022-09-30T11:30:08;21.75;;;20.55;;
21569;SDS011;57598;50.888;4.746;2022-09-30T11:32:39;21.52;;;20.33;;
21569;SDS011;57598;50.888;4.746;2022-09-30T11:35:14;21.25;;;20.05;;
21569;SDS011;57598;50.888;4.746;2022-09-30T11:37:51;20.52;;;19.33;;
21569;SDS011;57598;50.888;4.746;2022-09-30T11:40:25;20.15;;;19.05;;
21569;SDS011;57598;50.888;4.746;2022-09-30T11:42:57;20.80;;;19.60;;
21569;SDS011;57598;50.888;4.746;2022-09-30T11:48:01;20.55;;;19.35;;
21569;SDS011;57598;50.888;4.746;2022-09-30T11:53:28;20.13;;;19.02;;
21569;SDS011;57598;50.888;4.746;2022-09-30T11:56:04;20.05;;;18.95;;
21569;SDS011;57598;50.888;4.746;2022-09-30T11:58:35;20.35;;;19.15;;
21569;SDS011;57598;50.888;4.746;2022-09-30T12:01:07;21.20;;;20.00;;
21569;SDS011;57598;50.888;4.746;2022-09-30T12:03:39;21.55;;;20.27;;
21569;SDS011;57598;50.888;4.746;2022-09-30T12:06:09;22.20;;;20.90;;
21569;SDS011;57598;50.888;4.746;2022-09-30T12:08:39;20.83;;;19.63;;
21569;SDS011;57598;50.888;4.746;2022-09-30T12:11:09;20.00;;;18.90;;
21569;SDS011;57598;50.888;4.746;2022-09-30T12:13:40;20.27;;;19.05;;
21569;SDS011;57598;50.888;4.746;2022-09-30T12:16:14;22.10;;;20.80;;
21569;SDS011;57598;50.888;4.746;2022-09-30T12:18:45;22.00;;;20.70;;
21569;SDS011;57598;50.888;4.746;2022-09-30T12:21:15;21.20;;;20.00;;
21569;SDS011;57598;50.888;4.746;2022-09-30T12:23:45;20.58;;;19.38;;
21569;SDS011;57598;50.888;4.746;2022-09-30T12:26:13;20.65;;;19.35;;
21569;SDS011;57598;50.888;4.746;2022-09-30T12:28:43;21.98;;;20.52;;
21569;SDS011;57598;50.888;4.746;2022-09-30T12:34:20;20.52;;;19.33;;
21569;SDS011;57598;50.888;4.746;2022-09-30T12:36:52;20.63;;;19.42;;
21569;SDS011;57598;50.888;4.746;2022-09-30T12:42:17;21.58;;;20.38;;
21569;SDS011;57598;50.888;4.746;2022-09-30T12:45:03;22.75;;;21.35;;
21569;SDS011;57598;50.888;4.746;2022-09-30T12:47:35;21.40;;;20.20;;
21569;SDS011;57598;50.888;4.746;2022-09-30T12:50:10;22.08;;;20.77;;
21569;SDS011;57598;50.888;4.746;2022-09-30T12:52:39;21.00;;;19.80;;
21569;SDS011;57598;50.888;4.746;2022-09-30T12:55:07;21.50;;;20.30;;
21569;SDS011;57598;50.888;4.746;2022-09-30T12:57:37;21.83;;;20.42;;
21569;SDS011;57598;50.888;4.746;2022-09-30T13:00:12;20.15;;;18.95;;
21569;SDS011;57598;50.888;4.746;2022-09-30T13:02:40;18.95;;;17.85;;
21569;SDS011;57598;50.888;4.746;2022-09-30T13:08:07;20.55;;;19.35;;
21569;SDS011;57598;50.888;4.746;2022-09-30T13:10:42;21.42;;;20.23;;
21569;SDS011;57598;50.888;4.746;2022-09-30T13:13:15;21.27;;;19.98;;
21569;SDS011;57598;50.888;4.746;2022-09-30T13:15:49;19.23;;;18.08;;
21569;SDS011;57598;50.888;4.746;2022-09-30T13:21:21;20.70;;;19.50;;
21569;SDS011;57598;50.888;4.746;2022-09-30T13:23:49;20.85;;;19.65;;
21569;SDS011;57598;50.888;4.746;2022-09-30T13:26:32;20.88;;;19.67;;
21569;SDS011;57598;50.888;4.746;2022-09-30T13:32:02;19.55;;;18.45;;
21569;SDS011;57598;50.888;4.746;2022-09-30T13:34:30;20.02;;;18.90;;
21569;SDS011;57598;50.888;4.746;2022-09-30T13:36:58;20.60;;;19.40;;
21569;SDS011;57598;50.888;4.746;2022-09-30T13:39:26;19.80;;;18.70;;
21569;SDS011;57598;50.888;4.746;2022-09-30T13:41:57;20.45;;;19.25;;
21569;SDS011;57598;50.888;4.746;2022-09-30T13:44:30;20.77;;;19.58;;
21569;SDS011;57598;50.888;4.746;2022-09-30T13:46:59;21.48;;;20.05;;
21569;SDS011;57598;50.888;4.746;2022-09-30T13:49:32;21.20;;;20.00;;
21569;SDS011;57598;50.888;4.746;2022-09-30T13:52:00;20.65;;;19.45;;
21569;SDS011;57598;50.888;4.746;2022-09-30T13:54:29;20.30;;;19.20;;
21569;SDS011;57598;50.888;4.746;2022-09-30T13:57:00;20.30;;;19.20;;
21569;SDS011;57598;50.888;4.746;2022-09-30T13:59:34;20.98;;;19.77;;
21569;SDS011;57598;50.888;4.746;2022-09-30T14:02:12;20.50;;;18.85;;
21569;SDS011;57598;50.888;4.746;2022-09-30T14:04:54;20.25;;;19.13;;
21569;SDS011;57598;50.888;4.746;2022-09-30T14:07:32;20.73;;;19.27;;
21569;SDS011;57598;50.888;4.746;2022-09-30T14:10:06;20.88;;;19.50;;
21569;SDS011;57598;50.888;4.746;2022-09-30T14:12:40;21.23;;;20.02;;
21569;SDS011;57598;50.888;4.746;2022-09-30T14:15:14;20.35;;;19.15;;
21569;SDS011;57598;50.888;4.746;2022-09-30T14:20:38;20.00;;;18.90;;
21569;SDS011;57598;50.888;4.746;2022-09-30T14:23:12;21.00;;;19.80;;
21569;SDS011;57598;50.888;4.746;2022-09-30T14:25:41;20.52;;;19.33;;
21569;SDS011;57598;50.888;4.746;2022-09-30T14:28:11;21.73;;;20.42;;
21569;SDS011;57598;50.888;4.746;2022-09-30T14:30:40;21.52;;;20.23;;
21569;SDS011;57598;50.888;4.746;2022-09-30T14:33:27;20.10;;;18.90;;
21569;SDS011;57598;50.888;4.746;2022-09-30T14:36:00;21.07;;;19.70;;
21569;SDS011;57598;50.888;4.746;2022-09-30T14:38:29;21.08;;;19.63;;
21569;SDS011;57598;50.888;4.746;2022-09-30T14:40:57;20.80;;;19.60;;
21569;SDS011;57598;50.888;4.746;2022-09-30T14:43:30;21.05;;;19.38;;
21569;SDS011;57598;50.888;4.746;2022-09-30T14:46:00;20.50;;;19.33;;
21569;SDS011;57598;50.888;4.746;2022-09-30T14:48:28;20.52;;;19.33;;
21569;SDS011;57598;50.888;4.746;2022-09-30T14:50:57;20.40;;;19.20;;
21569;SDS011;57598;50.888;4.746;2022-09-30T14:53:27;20.23;;;19.13;;
21569;SDS011;57598;50.888;4.746;2022-09-30T14:55:55;19.08;;;17.98;;
21569;SDS011;57598;50.888;4.746;2022-09-30T14:58:24;19.52;;;18.33;;
21569;SDS011;57598;50.888;4.746;2022-09-30T15:01:02;20.00;;;18.90;;
21569;SDS011;57598;50.888;4.746;2022-09-30T15:03:31;19.48;;;18.38;;
21569;SDS011;57598;50.888;4.746;2022-09-30T15:06:00;21.02;;;19.75;;
21569;SDS011;57598;50.888;4.746;2022-09-30T15:08:28;21.00;;;19.80;;
21569;SDS011;57598;50.888;4.746;2022-09-30T15:10:56;21.48;;;20.27;;
21569;SDS011;57598;50.888;4.746;2022-09-30T15:13:24;19.85;;;18.75;;
21569;SDS011;57598;50.888;4.746;2022-09-30T15:15:52;20.13;;;18.92;;